Time;durP1;ratioP1;P1;durP2;ratioP2;P2;SDS_P1;SDS_P2;PMS_P1;PMS_P2;Temp;Humidity;BMP_temperature;BMP_pressure;BME280_temperature;BME280_humidity;BME280_pressure;Samples;Min_cycle;Max_cycle;Signal;HPM_P1;HPM_P2
2021/06/21 00:01:43;;;;;;;6.75;5.20;;;;;;;20.97;63.89;99493.59;10426090;28;20654;-77
2021/06/21 00:06:46;;;;;;;7.45;4.60;;;;;;;20.93;63.96;99495.06;10423385;28;20218;-77
2021/06/21 00:11:49;;;;;;;7.97;4.57;;;;;;;20.90;64.15;99498.25;10421904;28;20198;-77
2021/06/21 00:16:54;;;;;;;5.65;5.03;;;;;;;20.88;63.95;99500.34;10425534;28;20210;-77
2021/06/21 00:21:57;;;;;;;10.02;4.70;;;;;;;20.70;64.27;99494.69;10409724;28;20202;-77
2021/06/21 00:27:00;;;;;;;6.93;4.88;;;;;;;20.71;64.33;99486.31;10426892;28;20252;-77
2021/06/21 00:32:05;;;;;;;8.82;5.10;;;;;;;20.61;64.65;99491.34;10427145;28;20249;-77
2021/06/21 00:37:08;;;;;;;7.53;5.28;;;;;;;20.47;66.35;99474.16;10413936;28;20352;-78
2021/06/21 00:42:11;;;;;;;6.80;4.78;;;;;;;20.12;68.58;99460.69;10435190;28;20194;-77
2021/06/21 00:47:18;;;;;;;7.00;5.50;;;;;;;19.72;70.42;99446.22;10433578;28;20222;-78
2021/06/21 00:52:21;;;;;;;7.10;5.20;;;;;;;19.41;72.94;99423.03;10415950;28;20395;-78
2021/06/21 00:57:24;;;;;;;6.90;5.93;;;;;;;19.23;73.70;99429.06;10433454;28;20760;-77
2021/06/21 01:02:29;;;;;;;8.60;6.38;;;;;;;18.98;74.83;99419.78;10416488;28;20202;-75
2021/06/21 01:07:32;;;;;;;12.50;6.40;;;;;;;18.61;75.82;99424.56;10414525;28;20249;-75
2021/06/21 01:13:04;;;;;;;7.45;6.50;;;;;;;18.42;76.85;99419.84;10432923;28;20226;-76
2021/06/21 01:18:11;;;;;;;12.43;6.63;;;;;;;18.36;77.98;99425.03;10432597;28;20213;-75
2021/06/21 01:23:49;;;;;;;8.18;6.40;;;;;;;18.19;78.73;99431.81;10432985;28;20205;-76
2021/06/21 01:29:11;;;;;;;11.68;6.90;;;;;;;18.00;80.00;99435.19;10410861;28;20226;-76
2021/06/21 01:34:17;;;;;;;9.02;7.15;;;;;;;17.74;81.26;99435.75;10431946;28;20663;-76
2021/06/21 01:39:21;;;;;;;10.93;7.07;;;;;;;17.68;82.13;99454.50;10432296;28;20190;-76
2021/06/21 01:44:27;;;;;;;11.55;7.75;;;;;;;17.52;83.04;99443.88;10431358;28;20221;-75
2021/06/21 01:49:37;;;;;;;13.13;9.20;;;;;;;17.25;83.37;99440.88;10413034;28;20201;-76
2021/06/21 01:54:46;;;;;;;14.05;8.30;;;;;;;17.02;83.95;99435.53;10431236;28;20209;-75
2021/06/21 01:59:51;;;;;;;13.00;8.68;;;;;;;16.98;84.63;99425.28;10413566;28;20202;-75
2021/06/21 02:04:58;;;;;;;10.35;8.32;;;;;;;17.11;85.12;99421.88;10430770;28;20682;-75
2021/06/21 02:10:03;;;;;;;15.57;10.05;;;;;;;17.07;84.85;99426.00;10430981;28;20651;-75
2021/06/21 02:15:08;;;;;;;15.15;9.35;;;;;;;16.94;85.17;99419.38;10430468;28;20225;-75
2021/06/21 02:20:15;;;;;;;15.50;9.93;;;;;;;16.96;85.39;99417.31;10430774;28;20705;-76
2021/06/21 02:25:18;;;;;;;12.63;9.13;;;;;;;16.98;85.49;99417.97;10430247;28;20225;-76
2021/06/21 02:30:23;;;;;;;14.93;9.38;;;;;;;16.99;85.81;99418.81;10430632;28;20194;-76
2021/06/21 02:35:28;;;;;;;14.13;9.00;;;;;;;17.09;85.74;99413.09;10444824;23;20230;-73
2021/06/21 02:40:30;;;;;;;13.93;9.77;;;;;;;17.04;85.96;99416.38;10366691;28;20266;-74
2021/06/21 02:45:34;;;;;;;14.35;9.35;;;;;;;17.11;86.28;99411.84;10346571;28;20234;-75
2021/06/21 02:50:42;;;;;;;15.65;10.50;;;;;;;17.08;86.44;99408.69;10348517;28;20194;-73
2021/06/21 02:55:50;;;;;;;12.82;9.73;;;;;;;17.02;86.42;99402.16;10347640;28;20214;-74
2021/06/21 03:00:54;;;;;;;13.70;10.05;;;;;;;16.92;86.20;99401.59;10347707;28;20183;-72
2021/06/21 03:06:00;;;;;;;16.10;10.27;;;;;;;16.99;86.80;99400.66;10346702;28;20246;-72
2021/06/21 03:11:05;;;;;;;14.05;9.93;;;;;;;17.01;86.70;99390.47;10347646;28;20196;-76
2021/06/21 03:16:08;;;;;;;17.00;10.52;;;;;;;17.02;86.69;99369.59;10347453;28;20273;-74
2021/06/21 03:21:12;;;;;;;15.90;11.45;;;;;;;16.97;86.64;99369.34;10347422;28;20203;-74
2021/06/21 03:26:16;;;;;;;15.68;11.32;;;;;;;16.93;86.45;99365.34;10347433;28;20226;-74
2021/06/21 03:31:21;;;;;;;15.52;11.27;;;;;;;16.93;86.73;99368.03;10348640;28;20191;-75
2021/06/21 03:36:25;;;;;;;16.95;10.98;;;;;;;16.86;86.32;99359.81;10348460;28;20688;-76
2021/06/21 03:41:29;;;;;;;15.77;10.73;;;;;;;16.82;87.02;99369.38;10347430;28;20207;-74
2021/06/21 03:46:32;;;;;;;16.42;10.73;;;;;;;16.90;86.74;99363.00;10348060;28;20589;-75
2021/06/21 03:51:37;;;;;;;10.25;8.50;;;;;;;16.92;87.10;99361.78;10348459;28;20191;-75
2021/06/21 03:56:39;;;;;;;13.65;9.88;;;;;;;17.07;87.34;99364.44;10346360;28;20230;-73
2021/06/21 04:01:42;;;;;;;11.15;8.15;;;;;;;17.17;87.25;99358.75;10346390;28;20191;-72
2021/06/21 04:06:47;;;;;;;15.50;9.88;;;;;;;17.15;87.11;99363.53;10345309;28;20223;-74
2021/06/21 04:11:50;;;;;;;7.13;6.43;;;;;;;17.08;87.24;99366.13;10350023;28;20206;-75
2021/06/21 04:16:53;;;;;;;6.68;5.72;;;;;;;17.25;87.35;99366.75;10352682;28;20223;-75
2021/06/21 04:21:57;;;;;;;7.32;6.25;;;;;;;17.17;87.22;99365.03;10352970;28;20202;-73
2021/06/21 04:27:00;;;;;;;5.40;4.90;;;;;;;17.11;86.84;99373.88;10351092;28;20242;-73
2021/06/21 04:32:04;;;;;;;9.38;7.95;;;;;;;17.12;87.11;99364.72;10352648;28;20226;-74
2021/06/21 04:37:08;;;;;;;7.68;6.60;;;;;;;17.10;86.91;99377.63;10351241;28;20281;-73
2021/06/21 04:42:11;;;;;;;8.13;5.25;;;;;;;17.08;87.11;99366.13;10352937;28;20274;-74
2021/06/21 04:47:14;;;;;;;6.15;4.55;;;;;;;17.14;87.29;99367.25;10352376;28;20242;-72
2021/06/21 04:52:20;;;;;;;6.20;4.35;;;;;;;17.14;87.08;99367.25;10352773;28;20187;-74
2021/06/21 04:57:23;;;;;;;8.45;6.53;;;;;;;17.25;87.51;99355.91;10352363;28;20210;-75
2021/06/21 05:02:26;;;;;;;9.10;6.43;;;;;;;17.23;87.26;99345.25;10360816;28;20191;-74
2021/06/21 05:07:30;;;;;;;10.00;7.03;;;;;;;17.16;87.37;99341.63;10352280;28;20691;-75
2021/06/21 05:12:33;;;;;;;4.90;4.35;;;;;;;17.06;87.16;99342.94;10352743;28;20191;-74
2021/06/21 05:17:36;;;;;;;6.03;4.85;;;;;;;17.15;87.63;99328.25;10351564;28;20243;-74
2021/06/21 05:22:41;;;;;;;7.45;6.50;;;;;;;17.14;87.12;99337.41;10350562;28;20611;-74
2021/06/21 05:27:44;;;;;;;9.88;6.22;;;;;;;17.15;86.96;99331.81;10350443;28;20211;-74
2021/06/21 05:32:47;;;;;;;6.05;5.03;;;;;;;17.07;86.92;99326.47;10350212;28;20638;-74
2021/06/21 05:37:51;;;;;;;4.38;3.22;;;;;;;17.12;87.27;99337.59;10349445;28;20722;-74
2021/06/21 05:42:54;;;;;;;7.10;5.05;;;;;;;17.21;87.40;99341.88;10350981;28;20569;-74
2021/06/21 05:47:57;;;;;;;7.53;5.30;;;;;;;17.22;87.12;99331.84;10350446;28;20215;-74
2021/06/21 05:53:01;;;;;;;5.53;4.38;;;;;;;17.14;87.20;99340.13;10350932;28;20268;-74
2021/06/21 05:58:04;;;;;;;7.20;3.75;;;;;;;17.12;86.99;99344.91;10350084;28;20290;-72
2021/06/21 06:03:07;;;;;;;8.05;5.25;;;;;;;17.23;87.14;99349.84;10349163;28;20203;-73
2021/06/21 06:08:12;;;;;;;4.88;3.85;;;;;;;17.16;87.22;99346.22;10349987;28;20290;-77
2021/06/21 06:13:14;;;;;;;6.90;5.70;;;;;;;17.08;86.66;99340.88;10350206;28;20197;-75
2021/06/21 06:18:17;;;;;;;3.97;3.63;;;;;;;16.97;86.94;99340.31;10349753;28;20807;-75
2021/06/21 06:23:22;;;;;;;7.97;6.28;;;;;;;16.82;87.22;99334.13;10360469;28;20200;-74
2021/06/21 06:28:25;;;;;;;7.18;5.95;;;;;;;16.77;87.27;99323.00;10389554;28;20217;-75
2021/06/21 06:33:28;;;;;;;9.10;6.50;;;;;;;16.61;88.07;99321.34;10400425;28;20213;-76
2021/06/21 06:38:32;;;;;;;6.90;5.18;;;;;;;16.67;88.07;99325.16;10432281;28;20600;-75
2021/06/21 06:43:35;;;;;;;8.00;4.82;;;;;;;16.70;87.76;99343.75;10413145;28;20676;-76
2021/06/21 06:48:38;;;;;;;6.97;5.10;;;;;;;16.58;88.45;99335.28;10430378;28;20221;-76
2021/06/21 06:53:45;;;;;;;9.00;4.68;;;;;;;16.68;88.48;99322.28;10419363;28;20201;-75
2021/06/21 06:58:48;;;;;;;7.35;4.75;;;;;;;16.71;88.30;99326.47;10409177;28;20225;-76
2021/06/21 07:03:51;;;;;;;4.88;4.10;;;;;;;16.87;89.00;99336.28;10432104;28;20650;-74
2021/06/21 07:08:56;;;;;;;7.63;5.35;;;;;;;17.12;88.77;99336.75;10422296;28;20209;-75
2021/06/21 07:13:59;;;;;;;7.10;4.63;;;;;;;17.16;87.85;99340.78;10394254;28;20206;-73
2021/06/21 07:19:02;;;;;;;5.40;4.47;;;;;;;16.92;87.53;99347.34;10382902;28;20565;-75
2021/06/21 07:24:08;;;;;;;5.57;4.60;;;;;;;16.86;87.83;99348.13;10431581;28;20197;-74
2021/06/21 07:29:12;;;;;;;4.95;3.67;;;;;;;17.04;88.25;99348.56;10429959;28;20210;-74
2021/06/21 07:34:15;;;;;;;5.38;4.05;;;;;;;16.96;87.71;99352.22;10429027;28;20191;-74
2021/06/21 07:39:19;;;;;;;3.00;2.40;;;;;;;17.12;88.48;99351.16;10416680;28;20249;-73
2021/06/21 07:44:23;;;;;;;2.92;2.60;;;;;;;17.30;87.46;99364.31;10406301;28;20713;-75
2021/06/21 07:49:26;;;;;;;1.80;1.60;;;;;;;16.80;86.26;99380.41;10396583;28;20210;-76
2021/06/21 07:54:30;;;;;;;3.35;2.20;;;;;;;16.42;87.18;99389.69;10428579;28;20198;-75
2021/06/21 07:59:33;;;;;;;3.42;3.00;;;;;;;17.08;88.52;99373.41;10428709;28;20591;-73
2021/06/21 08:04:36;;;;;;;2.10;1.90;;;;;;;17.51;87.86;99384.34;10437959;28;20179;-74
2021/06/21 08:09:40;;;;;;;3.05;2.40;;;;;;;18.03;88.01;99385.91;10398985;28;20206;-76
2021/06/21 08:14:43;;;;;;;2.58;2.30;;;;;;;18.82;86.77;99384.75;10424658;28;20275;-74
2021/06/21 08:19:46;;;;;;;2.20;2.00;;;;;;;19.08;86.02;99382.13;10428084;28;20682;-74
2021/06/21 08:24:51;;;;;;;3.72;2.30;;;;;;;19.23;85.90;99376.53;10410090;28;20842;-74
2021/06/21 08:29:54;;;;;;;4.40;2.75;;;;;;;20.10;83.23;99388.34;10389888;28;20195;-74
2021/06/21 08:34:57;;;;;;;3.05;2.67;;;;;;;19.91;82.39;99395.47;10345275;28;20687;-74
2021/06/21 08:40:02;;;;;;;2.60;2.40;;;;;;;19.92;82.17;99405.34;10432587;23;20740;-76
2021/06/21 08:45:06;;;;;;;2.85;2.65;;;;;;;19.35;83.71;99403.97;10426064;28;20567;-76
2021/06/21 08:50:12;;;;;;;4.13;2.78;;;;;;;20.24;84.48;99398.22;10425847;28;20206;-76
2021/06/21 08:55:16;;;;;;;4.55;2.97;;;;;;;20.89;80.81;99398.28;10425135;28;20244;-76
2021/06/21 09:00:22;;;;;;;3.55;3.03;;;;;;;21.34;80.06;99386.56;10432253;28;20214;-76
2021/06/21 09:05:26;;;;;;;2.85;2.65;;;;;;;21.12;78.38;99394.25;10431854;28;20659;-76
2021/06/21 09:10:31;;;;;;;2.63;2.42;;;;;;;20.91;76.60;99398.91;10432107;28;20604;-76
2021/06/21 09:15:36;;;;;;;3.28;2.70;;;;;;;21.00;79.53;99413.97;10431834;28;20213;-76
2021/06/21 09:21:32;;;;;;;4.30;3.90;;;;;;;20.22;78.74;99410.38;10432792;28;20229;-76
2021/06/21 09:26:46;;;;;;;4.75;3.20;;;;;;;20.08;80.31;99404.09;10431444;28;20206;-76
2021/06/21 09:31:52;;;;;;;3.65;3.13;;;;;;;20.96;80.58;99404.56;10431509;28;20198;-76
2021/06/21 09:37:07;;;;;;;3.50;3.20;;;;;;;21.99;76.99;99397.28;10428837;28;20225;-76
2021/06/21 09:42:15;;;;;;;3.85;3.08;;;;;;;22.39;74.50;99400.50;10431220;28;20650;-76
2021/06/21 09:47:25;;;;;;;4.20;2.88;;;;;;;22.61;75.08;99395.44;10430892;28;20214;-76
2021/06/21 09:52:39;;;;;;;3.50;3.13;;;;;;;23.49;73.03;99382.34;10390991;28;20194;-75
2021/06/21 09:57:46;;;;;;;3.45;3.10;;;;;;;23.70;70.60;99389.22;10389975;28;20582;-77
2021/06/21 10:02:49;;;;;;;5.05;3.92;;;;;;;24.87;65.95;99385.69;10404974;28;20194;-76
2021/06/21 10:07:58;;;;;;;3.90;3.00;;;;;;;26.34;61.17;99388.69;10429279;28;20584;-75
2021/06/21 10:13:02;;;;;;;3.78;3.05;;;;;;;24.62;63.85;99407.94;10431074;28;20201;-75
2021/06/21 10:18:08;;;;;;;3.42;2.92;;;;;;;23.28;66.71;99411.91;10429149;28;20222;-75
2021/06/21 10:23:11;;;;;;;7.00;3.80;;;;;;;21.84;68.27;99416.75;10412523;28;20202;-75
2021/06/21 10:28:15;;;;;;;5.00;4.50;;;;;;;21.00;75.01;99421.34;10427350;28;20237;-74
2021/06/21 10:33:18;;;;;;;8.85;5.75;;;;;;;19.79;80.95;99421.69;10430391;28;20207;-74
2021/06/21 10:38:21;;;;;;;6.53;5.05;;;;;;;18.85;83.61;99428.69;10429760;28;20218;-75
2021/06/21 10:43:49;;;;;;;6.90;6.20;;;;;;;18.50;85.51;99433.28;10412843;28;20198;-75
2021/06/21 10:49:34;;;;;;;9.27;7.05;;;;;;;17.82;85.80;99443.75;10430086;28;20206;-74
2021/06/21 10:54:37;;;;;;;11.02;7.95;;;;;;;18.88;91.25;99427.47;10428006;28;20567;-74
2021/06/21 10:59:42;;;;;;;11.82;8.30;;;;;;;19.64;83.67;99428.16;10429122;28;20222;-74
2021/06/21 11:04:45;;;;;;;8.98;7.20;;;;;;;20.06;89.53;99431.56;10429439;28;20193;-75
2021/06/21 11:09:51;;;;;;;9.48;8.05;;;;;;;20.89;87.02;99441.94;10429275;28;20217;-74
2021/06/21 11:15:12;;;;;;;8.35;7.20;;;;;;;20.36;85.21;99439.34;10428939;28;20193;-74
2021/06/21 11:20:33;;;;;;;8.88;7.70;;;;;;;20.23;87.29;99439.31;10429037;28;20337;-74
2021/06/21 11:25:40;;;;;;;7.78;6.97;;;;;;;20.59;86.53;99438.03;10429082;28;20194;-75
2021/06/21 11:30:45;;;;;;;8.18;6.95;;;;;;;20.88;83.25;99421.19;10429101;28;20175;-75
2021/06/21 11:35:58;;;;;;;7.57;6.30;;;;;;;20.98;84.90;99421.56;10428826;28;20226;-75
2021/06/21 11:41:31;;;;;;;7.80;6.68;;;;;;;20.95;82.55;99422.00;10428723;28;20214;-75
2021/06/21 11:46:50;;;;;;;9.38;6.82;;;;;;;20.15;83.07;99420.44;10428311;28;20206;-75
2021/06/21 11:51:56;;;;;;;10.07;7.13;;;;;;;19.05;85.42;99434.22;10428232;28;20210;-75
2021/06/21 11:57:00;;;;;;;9.82;7.53;;;;;;;18.63;87.45;99443.41;10427578;28;20206;-75
2021/06/21 12:02:07;;;;;;;12.63;9.68;;;;;;;19.98;92.67;99439.09;10427792;28;20202;-74
2021/06/21 12:07:28;;;;;;;12.95;9.88;;;;;;;21.01;88.46;99432.06;10426749;28;20214;-74
2021/06/21 12:12:33;;;;;;;15.30;10.98;;;;;;;22.53;88.02;99429.41;10426866;28;20194;-75
2021/06/21 12:17:39;;;;;;;12.48;9.55;;;;;;;22.42;84.52;99434.75;10426388;28;20272;-75
2021/06/21 12:22:52;;;;;;;10.95;8.77;;;;;;;23.00;83.98;99427.00;10427577;28;20654;-75
2021/06/21 12:28:08;;;;;;;12.45;9.25;;;;;;;22.39;83.10;99430.56;10426080;28;20589;-75
2021/06/21 12:33:33;;;;;;;9.73;8.48;;;;;;;21.75;83.24;99438.03;10430802;28;20194;-74
2021/06/21 12:38:38;;;;;;;11.32;10.02;;;;;;;21.13;83.79;99432.25;10431324;28;20317;-75
2021/06/21 12:43:41;;;;;;;13.88;9.68;;;;;;;20.55;83.51;99435.75;10433203;28;20247;-75
2021/06/21 12:48:46;;;;;;;15.13;10.27;;;;;;;18.70;83.69;99494.06;10432593;28;20588;-74
2021/06/21 12:53:51;;;;;;;15.75;11.35;;;;;;;16.86;93.39;99502.72;10415534;28;20204;-75
2021/06/21 12:58:58;;;;;;;16.70;12.00;;;;;;;17.38;94.74;99480.88;10432657;28;20217;-75
2021/06/21 13:04:18;;;;;;;18.02;12.15;;;;;;;18.35;94.83;99491.31;10430973;28;20186;-73
2021/06/21 13:09:21;;;;;;;18.73;13.55;;;;;;;19.41;95.69;99490.28;10399616;28;20218;-74
2021/06/21 13:14:30;;;;;;;24.85;15.05;;;;;;;20.81;98.80;99493.19;10428172;28;20198;-74
2021/06/21 13:19:43;;;;;;;15.68;11.93;;;;;;;22.25;96.29;99500.16;10429541;28;20217;-74
2021/06/21 13:24:46;;;;;;;15.68;11.68;;;;;;;20.56;91.19;99519.25;10431430;28;20198;-74
2021/06/21 13:29:49;;;;;;;14.73;10.63;;;;;;;19.40;91.30;99511.22;10431104;28;20214;-73
2021/06/21 13:34:55;;;;;;;18.33;11.60;;;;;;;18.91;90.20;99516.84;10411159;28;20230;-73
2021/06/21 13:40:04;;;;;;;16.40;10.85;;;;;;;18.42;91.67;99531.31;10383273;28;20219;-73
2021/06/21 13:45:10;;;;;;;15.20;10.13;;;;;;;17.58;90.61;99556.31;10387725;28;20274;-74
2021/06/21 13:50:17;;;;;;;14.77;9.35;;;;;;;17.28;90.25;99566.34;10389707;28;20218;-74
2021/06/21 13:55:21;;;;;;;14.68;8.85;;;;;;;17.18;91.29;99583.78;10389063;28;20221;-75
2021/06/21 14:00:30;;;;;;;10.07;7.57;;;;;;;17.04;90.16;99585.41;10389600;28;20218;-76
2021/06/21 14:05:34;;;;;;;7.82;5.03;;;;;;;16.47;90.62;99590.53;10389206;28;20213;-75
2021/06/21 14:10:37;;;;;;;6.03;4.07;;;;;;;16.76;89.92;99595.22;10389567;28;20194;-75
2021/06/21 14:15:42;;;;;;;5.15;3.65;;;;;;;17.16;91.56;99598.56;10411717;28;20682;-74
2021/06/21 14:20:46;;;;;;;4.82;3.15;;;;;;;17.24;90.60;99595.75;10429836;28;20201;-74
2021/06/21 14:25:50;;;;;;;5.25;3.08;;;;;;;17.14;90.51;99601.47;10429021;28;20210;-73
2021/06/21 14:30:53;;;;;;;5.57;3.90;;;;;;;17.33;90.53;99613.59;10429428;28;20216;-74
2021/06/21 14:36:18;;;;;;;4.53;3.30;;;;;;;17.04;90.14;99611.72;10418826;23;20234;31
2021/06/21 14:41:21;;;;;;;4.95;3.30;;;;;;;17.24;90.01;99633.75;10272054;28;20230;-74
2021/06/21 14:46:25;;;;;;;5.40;3.67;;;;;;;16.88;90.08;99639.00;10265645;28;20231;-72
2021/06/21 14:51:29;;;;;;;4.20;3.55;;;;;;;16.52;89.60;99659.44;10267385;28;20185;-74
2021/06/21 14:56:33;;;;;;;4.60;3.10;;;;;;;16.17;89.96;99681.66;10267437;28;20232;-73
2021/06/21 15:01:36;;;;;;;5.53;3.78;;;;;;;16.19;90.47;99680.47;10267935;28;20243;-73
2021/06/21 15:06:40;;;;;;;4.63;2.20;;;;;;;15.78;89.57;99694.19;10226412;29;20256;-73
2021/06/21 15:11:43;;;;;;;3.03;2.42;;;;;;;15.54;90.48;99691.56;10230568;29;20189;-74
2021/06/21 15:16:46;;;;;;;3.70;2.28;;;;;;;16.15;90.18;99704.38;10226152;29;20221;-75
2021/06/21 15:21:51;;;;;;;3.40;2.15;;;;;;;16.11;90.18;99716.56;10227616;29;20209;-76
2021/06/21 15:26:55;;;;;;;3.40;2.60;;;;;;;15.79;89.37;99727.53;10227250;29;20216;-74
2021/06/21 15:31:58;;;;;;;3.08;2.42;;;;;;;15.57;90.27;99732.66;10227426;29;20655;-74
2021/06/21 15:37:03;;;;;;;2.80;2.15;;;;;;;15.33;89.81;99738.06;10232036;28;20287;-75
2021/06/21 15:42:08;;;;;;;2.15;1.95;;;;;;;15.87;90.93;99760.00;10246757;28;20235;-73
2021/06/21 15:47:11;;;;;;;2.17;1.98;;;;;;;15.79;90.43;99773.56;10266677;28;20681;-74
2021/06/21 16:05:37;;;;;;;4.90;2.10;;;;;;;15.16;90.10;99807.59;10266343;28;20189;-76
2021/06/21 16:10:40;;;;;;;2.72;2.20;;;;;;;15.00;89.23;99816.53;10277059;28;20239;-76
2021/06/21 16:15:43;;;;;;;3.65;2.40;;;;;;;14.87;89.76;99821.59;10271974;28;20890;-74
2021/06/21 16:20:48;;;;;;;2.92;2.10;;;;;;;14.77;89.43;99830.69;10274081;28;20623;-75
2021/06/21 16:25:51;;;;;;;2.50;1.90;;;;;;;14.72;89.99;99840.28;10271867;28;20558;-76
2021/06/21 16:30:54;;;;;;;1.90;1.50;;;;;;;14.50;88.69;99874.16;10268873;28;20216;-74
2021/06/21 16:35:58;;;;;;;2.30;1.70;;;;;;;14.78;89.03;99869.38;10231431;29;20284;-75
2021/06/21 16:41:01;;;;;;;1.90;1.30;;;;;;;14.43;88.53;99884.78;10230776;29;20689;-76
2021/06/21 16:46:04;;;;;;;1.15;1.05;;;;;;;14.14;89.70;99895.91;10231639;29;20267;-73
2021/06/21 16:51:08;;;;;;;1.35;1.10;;;;;;;14.15;88.45;99901.16;10232666;29;20186;-74
2021/06/21 16:56:11;;;;;;;2.63;1.30;;;;;;;14.45;88.54;99904.38;10232646;29;20276;-75
2021/06/21 17:01:16;;;;;;;1.75;1.35;;;;;;;14.50;88.76;99907.44;10231514;29;20224;-77
2021/06/21 17:06:20;;;;;;;3.30;1.25;;;;;;;14.34;88.23;99924.41;10277519;28;20320;-76
2021/06/21 17:11:23;;;;;;;3.45;1.40;;;;;;;14.21;88.29;99940.19;10275732;28;20279;-78
2021/06/21 17:16:26;;;;;;;1.40;1.25;;;;;;;14.35;89.06;99958.50;10275184;28;20682;-76
2021/06/21 17:21:31;;;;;;;1.85;1.63;;;;;;;14.09;88.26;99963.88;10272757;28;20227;-76
2021/06/21 17:26:34;;;;;;;2.30;1.70;;;;;;;14.10;88.51;99962.06;10273947;28;20216;-75
2021/06/21 17:31:37;;;;;;;2.28;1.60;;;;;;;13.96;88.05;99973.41;10281802;28;20188;-75
2021/06/21 17:36:41;;;;;;;1.63;1.23;;;;;;;13.56;88.30;99991.78;10271382;28;20709;-75
2021/06/21 17:41:44;;;;;;;1.92;1.55;;;;;;;13.43;88.55;99999.38;10270464;28;20609;-76
2021/06/21 17:46:47;;;;;;;4.68;1.67;;;;;;;13.48;89.14;99997.94;10272040;28;20217;-78
2021/06/21 17:51:52;;;;;;;1.95;1.45;;;;;;;13.35;88.56;100010.06;10280994;28;20207;-77
2021/06/21 17:56:55;;;;;;;2.40;1.63;;;;;;;13.70;88.95;100009.28;10276278;28;20694;-76
2021/06/21 18:01:58;;;;;;;3.30;1.40;;;;;;;13.98;88.94;100006.50;10288494;28;20270;-77
2021/06/21 18:07:02;;;;;;;4.70;1.38;;;;;;;14.01;88.25;100020.53;10272480;28;20220;-75
2021/06/21 18:12:06;;;;;;;3.60;1.52;;;;;;;13.95;88.36;100023.84;10270500;28;20214;-76
2021/06/21 18:17:09;;;;;;;1.77;1.33;;;;;;;14.00;88.23;100018.84;10253559;28;20223;-76
2021/06/21 18:22:14;;;;;;;7.55;2.15;;;;;;;13.76;88.74;100024.00;10271881;28;20223;-77
2021/06/21 18:27:17;;;;;;;2.92;1.55;;;;;;;13.80;88.48;100031.66;10270635;28;20227;-76
2021/06/21 18:32:20;;;;;;;2.38;1.60;;;;;;;13.31;88.03;100025.72;10269844;28;20761;-76
2021/06/21 18:37:25;;;;;;;2.05;1.60;;;;;;;13.55;88.64;100024.28;10268204;28;20232;-76
2021/06/21 18:42:28;;;;;;;1.60;1.50;;;;;;;13.59;88.11;100017.59;10269007;28;20227;-76
2021/06/21 18:47:31;;;;;;;7.80;1.52;;;;;;;13.58;87.52;100027.56;10261088;28;20236;-76
2021/06/21 18:52:36;;;;;;;1.55;1.20;;;;;;;13.60;87.90;100035.47;10253280;28;20203;-76
2021/06/21 18:57:39;;;;;;;1.83;1.70;;;;;;;13.59;87.62;100044.59;10276105;28;20220;-76
2021/06/21 19:02:43;;;;;;;3.40;1.73;;;;;;;13.38;87.77;100051.09;10269936;28;20213;-76
2021/06/21 19:07:48;;;;;;;2.10;1.90;;;;;;;13.45;88.07;100065.69;10269471;28;20263;-76
2021/06/21 19:12:52;;;;;;;3.10;1.80;;;;;;;13.39;88.06;100092.44;10250541;28;20201;-77
2021/06/21 19:17:55;;;;;;;1.77;1.60;;;;;;;13.17;87.72;100109.81;10268129;28;20225;-78
2021/06/21 19:23:02;;;;;;;3.28;1.52;;;;;;;13.21;87.69;100114.75;10270406;28;20217;-78
2021/06/21 19:28:07;;;;;;;1.90;1.70;;;;;;;13.18;88.16;100119.59;10269609;28;20232;-77
2021/06/21 19:33:11;;;;;;;1.85;1.55;;;;;;;13.16;87.53;100137.75;10269465;28;20609;-78
2021/06/21 19:38:16;;;;;;;2.55;1.70;;;;;;;13.12;88.25;100128.28;10267245;28;20638;-76
2021/06/21 19:43:20;;;;;;;2.60;1.70;;;;;;;13.12;88.21;100149.84;10263403;28;20217;-78
2021/06/21 19:48:23;;;;;;;3.25;1.70;;;;;;;13.16;88.27;100153.94;10268378;28;20213;-75
2021/06/21 19:53:28;;;;;;;6.97;2.50;;;;;;;13.16;88.32;100159.34;10265614;28;20553;-73
2021/06/21 19:58:33;;;;;;;5.43;2.22;;;;;;;13.49;88.79;100163.34;10263424;28;20227;-73
2021/06/21 20:03:39;;;;;;;3.97;2.65;;;;;;;13.34;87.76;100160.28;10265769;28;20634;-73
2021/06/21 20:08:47;;;;;;;4.57;3.10;;;;;;;13.10;87.53;100181.50;10265965;28;20224;-73
2021/06/21 20:13:53;;;;;;;7.50;3.92;;;;;;;13.14;88.02;100191.88;10264601;28;20208;-73
2021/06/21 20:18:56;;;;;;;5.50;3.05;;;;;;;12.83;87.52;100189.38;10265206;28;20213;-74
2021/06/21 20:24:01;;;;;;;5.93;3.50;;;;;;;12.96;88.14;100205.22;10264482;28;20689;-75
2021/06/21 20:29:04;;;;;;;5.97;3.47;;;;;;;12.90;87.83;100223.84;10274172;28;20228;-75
2021/06/21 20:34:09;;;;;;;11.75;3.47;;;;;;;12.73;88.05;100214.63;10265000;28;20323;-74
2021/06/21 20:39:14;;;;;;;5.30;3.30;;;;;;;12.81;88.09;100220.16;10265862;28;20235;-73
2021/06/21 20:44:17;;;;;;;9.48;3.60;;;;;;;12.78;87.72;100213.19;10264852;28;20216;-74
2021/06/21 20:49:20;;;;;;;6.43;3.67;;;;;;;12.83;87.98;100210.06;10264515;28;20219;-73
2021/06/21 20:54:24;;;;;;;5.65;4.28;;;;;;;12.86;88.05;100214.31;10267901;28;20654;-73
2021/06/21 20:59:27;;;;;;;7.25;4.72;;;;;;;12.86;87.72;100203.53;10270597;28;20577;-73
2021/06/21 21:04:30;;;;;;;9.30;5.00;;;;;;;12.81;87.97;100203.97;10270958;28;20227;-73
2021/06/21 21:09:35;;;;;;;7.80;4.20;;;;;;;12.65;87.30;100223.41;10253584;28;20228;-74
2021/06/21 21:14:38;;;;;;;10.38;4.15;;;;;;;12.37;87.25;100235.88;10270243;28;20193;-72
2021/06/21 21:19:41;;;;;;;9.45;4.53;;;;;;;12.47;87.32;100239.41;10267107;28;20232;-73
2021/06/21 21:24:45;;;;;;;7.35;3.97;;;;;;;12.50;87.99;100255.28;10268911;28;20223;-74
2021/06/21 21:29:48;;;;;;;10.50;4.97;;;;;;;12.43;87.05;100237.16;10270997;28;20217;-74
2021/06/21 21:34:51;;;;;;;8.15;5.32;;;;;;;12.44;87.78;100217.31;10270883;28;20200;-74
2021/06/21 21:39:55;;;;;;;12.60;5.40;;;;;;;12.39;87.44;100232.03;10269050;28;20753;-72
2021/06/21 21:44:59;;;;;;;12.35;6.03;;;;;;;12.25;86.95;100236.94;10269228;28;20224;-73
2021/06/21 21:50:01;;;;;;;9.43;5.43;;;;;;;12.12;87.35;100254.22;10268781;28;20220;-73
2021/06/21 21:55:22;;;;;;;11.90;6.28;;;;;;;12.17;87.23;100248.41;10270620;28;20189;-74
2021/06/21 22:00:28;;;;;;;13.43;7.05;;;;;;;12.10;86.85;100264.28;10269845;28;20219;-74
2021/06/21 22:05:31;;;;;;;10.40;7.05;;;;;;;12.27;87.72;100259.22;10250586;28;20216;-73
2021/06/21 22:10:37;;;;;;;9.98;6.38;;;;;;;12.35;87.38;100248.63;10269269;28;20220;-75
2021/06/21 22:15:39;;;;;;;11.55;6.40;;;;;;;12.35;87.72;100240.56;10267185;28;20185;-74
2021/06/21 22:20:43;;;;;;;12.65;6.43;;;;;;;12.40;87.65;100246.38;10268182;28;20216;-73
2021/06/21 22:25:48;;;;;;;10.63;5.88;;;;;;;12.36;87.80;100248.47;10267410;28;20200;-73
2021/06/21 22:30:51;;;;;;;10.75;5.78;;;;;;;12.44;87.87;100234.31;10266302;28;20220;-72
2021/06/21 22:35:54;;;;;;;13.23;5.93;;;;;;;12.39;87.93;100228.50;10263785;28;20193;-72
2021/06/21 22:40:58;;;;;;;13.00;6.70;;;;;;;12.41;87.47;100241.84;10263104;28;20545;-73
2021/06/21 22:46:01;;;;;;;11.30;6.38;;;;;;;12.34;87.56;100263.06;10263931;28;20192;-72
2021/06/21 22:51:04;;;;;;;10.27;6.55;;;;;;;12.33;87.47;100264.06;10258814;28;20189;-72
2021/06/21 22:56:09;;;;;;;11.55;7.22;;;;;;;12.24;87.12;100272.97;10259473;28;20264;-73
2021/06/21 23:01:11;;;;;;;26.13;8.38;;;;;;;12.31;87.84;100268.72;10261409;28;20238;-73
2021/06/21 23:06:15;;;;;;;12.00;7.35;;;;;;;12.35;87.82;100272.88;10259193;28;20193;-73
2021/06/21 23:11:19;;;;;;;13.40;7.22;;;;;;;12.41;87.92;100274.16;10262692;28;20185;-73
2021/06/21 23:16:22;;;;;;;14.70;7.63;;;;;;;12.34;86.39;100269.34;10258582;28;20212;-73
2021/06/21 23:21:25;;;;;;;16.17;8.07;;;;;;;12.26;86.97;100274.53;10259332;28;20221;-73
2021/06/21 23:26:29;;;;;;;21.20;8.30;;;;;;;12.03;86.52;100271.19;10258517;28;20220;-73
2021/06/21 23:31:32;;;;;;;14.18;7.72;;;;;;;12.10;85.89;100291.19;10265421;28;20558;-73
2021/06/21 23:36:35;;;;;;;14.93;6.93;;;;;;;12.16;86.80;100298.72;10265525;28;20224;-73
2021/06/21 23:41:39;;;;;;;14.50;6.68;;;;;;;12.20;86.96;100311.91;10248468;28;20209;-73